sensor_id;sensor_type;location;lat;lon;timestamp;pressure;altitude;pressure_sealevel;temperature;humidity
3142;BME280;1581;51.568;6.998;2023-04-07T00:01:10;100653.59;;;9.82;100.00
3142;BME280;1581;51.568;6.998;2023-04-07T00:03:38;100653.31;;;9.77;100.00
3142;BME280;1581;51.568;6.998;2023-04-07T00:06:06;100658.56;;;9.70;100.00
3142;BME280;1581;51.568;6.998;2023-04-07T00:08:34;100658.66;;;9.62;100.00
3142;BME280;1581;51.568;6.998;2023-04-07T00:11:01;100650.84;;;9.75;100.00
3142;BME280;1581;51.568;6.998;2023-04-07T00:13:31;100656.63;;;9.79;100.00
3142;BME280;1581;51.568;6.998;2023-04-07T00:15:58;100645.34;;;9.77;100.00
3142;BME280;1581;51.568;6.998;2023-04-07T00:18:26;100651.31;;;9.79;100.00
3142;BME280;1581;51.568;6.998;2023-04-07T00:20:54;100653.88;;;9.72;100.00
3142;BME280;1581;51.568;6.998;2023-04-07T00:23:22;100649.44;;;9.79;100.00
3142;BME280;1581;51.568;6.998;2023-04-07T00:25:49;100654.63;;;9.38;100.00
3142;BME280;1581;51.568;6.998;2023-04-07T00:28:17;100656.34;;;9.31;100.00
3142;BME280;1581;51.568;6.998;2023-04-07T00:30:46;100660.50;;;9.47;100.00
3142;BME280;1581;51.568;6.998;2023-04-07T00:33:14;100646.44;;;9.68;100.00
3142;BME280;1581;51.568;6.998;2023-04-07T00:35:41;100645.91;;;9.58;100.00
3142;BME280;1581;51.568;6.998;2023-04-07T00:38:09;100642.50;;;9.64;100.00
3142;BME280;1581;51.568;6.998;2023-04-07T00:40:37;100639.75;;;9.72;100.00
3142;BME280;1581;51.568;6.998;2023-04-07T00:43:04;100648.66;;;9.50;100.00
3142;BME280;1581;51.568;6.998;2023-04-07T00:45:32;100644.34;;;9.63;100.00
3142;BME280;1581;51.568;6.998;2023-04-07T00:48:01;100641.41;;;9.44;100.00
3142;BME280;1581;51.568;6.998;2023-04-07T00:50:29;100635.91;;;9.60;100.00
3142;BME280;1581;51.568;6.998;2023-04-07T00:53:01;100647.53;;;9.73;100.00
3142;BME280;1581;51.568;6.998;2023-04-07T00:55:34;100636.72;;;9.46;100.00
3142;BME280;1581;51.568;6.998;2023-04-07T00:58:03;100631.72;;;9.37;100.00
3142;BME280;1581;51.568;6.998;2023-04-07T01:00:33;100632.88;;;9.34;100.00
3142;BME280;1581;51.568;6.998;2023-04-07T01:03:10;100644.34;;;9.49;100.00
3142;BME280;1581;51.568;6.998;2023-04-07T01:05:46;100632.59;;;9.58;100.00
3142;BME280;1581;51.568;6.998;2023-04-07T01:08:23;100626.00;;;9.54;100.00
3142;BME280;1581;51.568;6.998;2023-04-07T01:10:57;100639.47;;;9.24;100.00
3142;BME280;1581;51.568;6.998;2023-04-07T01:13:33;100635.06;;;9.31;100.00
3142;BME280;1581;51.568;6.998;2023-04-07T01:16:08;100632.63;;;9.29;100.00
3142;BME280;1581;51.568;6.998;2023-04-07T01:18:40;100626.00;;;9.39;100.00
3142;BME280;1581;51.568;6.998;2023-04-07T01:21:14;100623.97;;;9.56;100.00
3142;BME280;1581;51.568;6.998;2023-04-07T01:24:02;100626.84;;;9.40;100.00
3142;BME280;1581;51.568;6.998;2023-04-07T01:26:33;100626.19;;;9.52;100.00
3142;BME280;1581;51.568;6.998;2023-04-07T01:29:28;100620.97;;;9.30;100.00
3142;BME280;1581;51.568;6.998;2023-04-07T01:32:01;100621.97;;;9.43;100.00
3142;BME280;1581;51.568;6.998;2023-04-07T01:34:31;100617.56;;;9.36;100.00
3142;BME280;1581;51.568;6.998;2023-04-07T01:37:01;100618.03;;;9.39;100.00
3142;BME280;1581;51.568;6.998;2023-04-07T01:39:29;100627.94;;;9.31;100.00
3142;BME280;1581;51.568;6.998;2023-04-07T01:41:57;100630.66;;;9.09;100.00
3142;BME280;1581;51.568;6.998;2023-04-07T01:44:30;100622.63;;;9.17;100.00
3142;BME280;1581;51.568;6.998;2023-04-07T01:46:59;100620.31;;;9.28;100.00
3142;BME280;1581;51.568;6.998;2023-04-07T01:49:29;100626.28;;;9.44;100.00
3142;BME280;1581;51.568;6.998;2023-04-07T01:51:57;100624.19;;;9.40;100.00
3142;BME280;1581;51.568;6.998;2023-04-07T01:54:26;100615.31;;;9.33;100.00
3142;BME280;1581;51.568;6.998;2023-04-07T01:56:54;100614.34;;;9.40;100.00
3142;BME280;1581;51.568;6.998;2023-04-07T01:59:23;100618.97;;;9.46;100.00
3142;BME280;1581;51.568;6.998;2023-04-07T02:01:52;100621.16;;;9.43;100.00
3142;BME280;1581;51.568;6.998;2023-04-07T02:04:24;100629.03;;;9.22;100.00
3142;BME280;1581;51.568;6.998;2023-04-07T02:07:00;100619.88;;;9.39;100.00
3142;BME280;1581;51.568;6.998;2023-04-07T02:09:31;100621.97;;;9.29;100.00
3142;BME280;1581;51.568;6.998;2023-04-07T02:12:00;100615.47;;;9.32;100.00
3142;BME280;1581;51.568;6.998;2023-04-07T02:14:28;100621.69;;;9.38;100.00
3142;BME280;1581;51.568;6.998;2023-04-07T02:16:59;100617.22;;;9.39;100.00
3142;BME280;1581;51.568;6.998;2023-04-07T02:19:28;100613.19;;;9.43;100.00
3142;BME280;1581;51.568;6.998;2023-04-07T02:21:56;100608.47;;;9.45;100.00
3142;BME280;1581;51.568;6.998;2023-04-07T02:24:26;100619.59;;;9.34;100.00
3142;BME280;1581;51.568;6.998;2023-04-07T02:26:54;100611.34;;;9.43;100.00
3142;BME280;1581;51.568;6.998;2023-04-07T02:29:22;100627.28;;;9.58;100.00
3142;BME280;1581;51.568;6.998;2023-04-07T02:31:50;100621.22;;;9.64;100.00
3142;BME280;1581;51.568;6.998;2023-04-07T02:34:19;100620.50;;;9.70;100.00
3142;BME280;1581;51.568;6.998;2023-04-07T02:36:46;100621.84;;;9.80;100.00
3142;BME280;1581;51.568;6.998;2023-04-07T02:39:14;100616.81;;;9.71;100.00
3142;BME280;1581;51.568;6.998;2023-04-07T02:41:42;100620.03;;;9.66;100.00
3142;BME280;1581;51.568;6.998;2023-04-07T02:44:09;100627.56;;;9.77;100.00
3142;BME280;1581;51.568;6.998;2023-04-07T02:46:37;100622.22;;;9.77;100.00
3142;BME280;1581;51.568;6.998;2023-04-07T02:49:06;100628.41;;;9.49;100.00
3142;BME280;1581;51.568;6.998;2023-04-07T02:51:35;100628.13;;;9.73;100.00
3142;BME280;1581;51.568;6.998;2023-04-07T02:54:03;100619.94;;;9.74;100.00
3142;BME280;1581;51.568;6.998;2023-04-07T02:56:30;100624.25;;;9.75;100.00
3142;BME280;1581;51.568;6.998;2023-04-07T02:58:58;100623.63;;;9.59;100.00
3142;BME280;1581;51.568;6.998;2023-04-07T03:01:26;100630.78;;;9.73;100.00
3142;BME280;1581;51.568;6.998;2023-04-07T03:03:54;100630.13;;;9.71;100.00
3142;BME280;1581;51.568;6.998;2023-04-07T03:06:21;100628.16;;;9.79;100.00
3142;BME280;1581;51.568;6.998;2023-04-07T03:08:50;100636.22;;;9.86;100.00
3142;BME280;1581;51.568;6.998;2023-04-07T03:11:18;100624.69;;;9.79;100.00
3142;BME280;1581;51.568;6.998;2023-04-07T03:13:46;100631.84;;;9.78;100.00
3142;BME280;1581;51.568;6.998;2023-04-07T03:16:13;100622.75;;;9.87;100.00
3142;BME280;1581;51.568;6.998;2023-04-07T03:18:41;100628.66;;;9.83;100.00
3142;BME280;1581;51.568;6.998;2023-04-07T03:21:09;100632.31;;;9.82;100.00
3142;BME280;1581;51.568;6.998;2023-04-07T03:23:37;100635.22;;;9.87;100.00
3142;BME280;1581;51.568;6.998;2023-04-07T03:26:06;100636.44;;;9.99;100.00
3142;BME280;1581;51.568;6.998;2023-04-07T03:28:34;100633.94;;;9.97;100.00
3142;BME280;1581;51.568;6.998;2023-04-07T03:31:01;100641.38;;;10.02;100.00
3142;BME280;1581;51.568;6.998;2023-04-07T03:33:29;100637.16;;;9.78;100.00
3142;BME280;1581;51.568;6.998;2023-04-07T03:35:57;100639.09;;;9.84;100.00
3142;BME280;1581;51.568;6.998;2023-04-07T03:38:25;100633.78;;;9.70;100.00
3142;BME280;1581;51.568;6.998;2023-04-07T03:40:54;100629.91;;;9.87;100.00
3142;BME280;1581;51.568;6.998;2023-04-07T03:43:23;100631.66;;;9.80;100.00
3142;BME280;1581;51.568;6.998;2023-04-07T03:45:52;100645.88;;;10.01;100.00
3142;BME280;1581;51.568;6.998;2023-04-07T03:48:20;100640.56;;;10.01;100.00
3142;BME280;1581;51.568;6.998;2023-04-07T03:50:48;100639.63;;;9.94;100.00
3142;BME280;1581;51.568;6.998;2023-04-07T03:53:16;100635.88;;;9.89;100.00
3142;BME280;1581;51.568;6.998;2023-04-07T03:55:44;100641.56;;;9.86;100.00
3142;BME280;1581;51.568;6.998;2023-04-07T03:58:13;100645.97;;;9.79;100.00
3142;BME280;1581;51.568;6.998;2023-04-07T04:00:42;100646.59;;;9.95;100.00
3142;BME280;1581;51.568;6.998;2023-04-07T04:03:11;100650.38;;;10.01;100.00
3142;BME280;1581;51.568;6.998;2023-04-07T04:05:38;100651.19;;;10.01;100.00
3142;BME280;1581;51.568;6.998;2023-04-07T04:08:06;100654.69;;;10.02;100.00
3142;BME280;1581;51.568;6.998;2023-04-07T04:10:34;100657.16;;;10.03;100.00
3142;BME280;1581;51.568;6.998;2023-04-07T04:13:02;100656.72;;;9.85;100.00
3142;BME280;1581;51.568;6.998;2023-04-07T04:15:32;100653.13;;;9.93;100.00
3142;BME280;1581;51.568;6.998;2023-04-07T04:18:01;100658.53;;;9.85;100.00
3142;BME280;1581;51.568;6.998;2023-04-07T04:20:28;100657.53;;;10.00;100.00
3142;BME280;1581;51.568;6.998;2023-04-07T04:22:56;100657.72;;;9.84;100.00
3142;BME280;1581;51.568;6.998;2023-04-07T04:25:24;100656.31;;;9.88;100.00
3142;BME280;1581;51.568;6.998;2023-04-07T04:27:52;100657.06;;;9.97;100.00
3142;BME280;1581;51.568;6.998;2023-04-07T04:30:19;100661.19;;;9.99;100.00
3142;BME280;1581;51.568;6.998;2023-04-07T04:32:47;100665.34;;;10.02;100.00
3142;BME280;1581;51.568;6.998;2023-04-07T04:35:17;100660.38;;;9.99;100.00
3142;BME280;1581;51.568;6.998;2023-04-07T04:37:45;100667.63;;;9.61;100.00
3142;BME280;1581;51.568;6.998;2023-04-07T04:40:13;100668.38;;;9.70;100.00
3142;BME280;1581;51.568;6.998;2023-04-07T04:42:41;100674.06;;;9.81;100.00
3142;BME280;1581;51.568;6.998;2023-04-07T04:45:10;100682.88;;;9.82;100.00
3142;BME280;1581;51.568;6.998;2023-04-07T04:47:37;100680.84;;;9.84;100.00
3142;BME280;1581;51.568;6.998;2023-04-07T04:50:06;100678.00;;;9.85;100.00
3142;BME280;1581;51.568;6.998;2023-04-07T04:52:36;100680.56;;;9.79;100.00
3142;BME280;1581;51.568;6.998;2023-04-07T04:55:05;100679.94;;;9.77;100.00
3142;BME280;1581;51.568;6.998;2023-04-07T04:57:33;100683.78;;;9.89;100.00
3142;BME280;1581;51.568;6.998;2023-04-07T05:00:02;100687.19;;;9.83;100.00
3142;BME280;1581;51.568;6.998;2023-04-07T05:02:30;100689.09;;;9.89;100.00
3142;BME280;1581;51.568;6.998;2023-04-07T05:04:58;100695.91;;;9.77;100.00
3142;BME280;1581;51.568;6.998;2023-04-07T05:07:25;100701.03;;;9.49;100.00
3142;BME280;1581;51.568;6.998;2023-04-07T05:09:54;100699.47;;;9.69;100.00
3142;BME280;1581;51.568;6.998;2023-04-07T05:12:22;100693.97;;;9.71;100.00
3142;BME280;1581;51.568;6.998;2023-04-07T05:14:50;100705.19;;;9.66;100.00
3142;BME280;1581;51.568;6.998;2023-04-07T05:17:18;100708.75;;;9.73;100.00
3142;BME280;1581;51.568;6.998;2023-04-07T05:19:45;100706.19;;;9.80;100.00
3142;BME280;1581;51.568;6.998;2023-04-07T05:22:13;100707.44;;;9.84;100.00
3142;BME280;1581;51.568;6.998;2023-04-07T05:24:41;100724.97;;;9.78;100.00
3142;BME280;1581;51.568;6.998;2023-04-07T05:27:10;100717.47;;;9.67;100.00
3142;BME280;1581;51.568;6.998;2023-04-07T05:29:38;100712.06;;;9.75;100.00
3142;BME280;1581;51.568;6.998;2023-04-07T05:32:05;100717.19;;;9.91;100.00
3142;BME280;1581;51.568;6.998;2023-04-07T05:34:33;100715.72;;;10.03;100.00
3142;BME280;1581;51.568;6.998;2023-04-07T05:37:01;100713.06;;;10.03;100.00
3142;BME280;1581;51.568;6.998;2023-04-07T05:39:29;100720.50;;;10.08;100.00
3142;BME280;1581;51.568;6.998;2023-04-07T05:41:56;100719.47;;;9.80;100.00
3142;BME280;1581;51.568;6.998;2023-04-07T05:44:25;100721.03;;;9.60;100.00
3142;BME280;1581;51.568;6.998;2023-04-07T05:46:53;100712.97;;;9.82;100.00
3142;BME280;1581;51.568;6.998;2023-04-07T05:49:21;100722.97;;;10.09;100.00
3142;BME280;1581;51.568;6.998;2023-04-07T05:51:48;100725.56;;;10.03;100.00
3142;BME280;1581;51.568;6.998;2023-04-07T05:54:16;100732.16;;;10.07;100.00
3142;BME280;1581;51.568;6.998;2023-04-07T05:56:44;100728.59;;;10.00;100.00
3142;BME280;1581;51.568;6.998;2023-04-07T05:59:11;100729.59;;;9.99;100.00
3142;BME280;1581;51.568;6.998;2023-04-07T06:01:41;100730.94;;;9.95;100.00
3142;BME280;1581;51.568;6.998;2023-04-07T06:04:09;100739.69;;;10.03;100.00
3142;BME280;1581;51.568;6.998;2023-04-07T06:06:37;100742.34;;;9.74;100.00
3142;BME280;1581;51.568;6.998;2023-04-07T06:09:04;100746.00;;;9.59;100.00
3142;BME280;1581;51.568;6.998;2023-04-07T06:11:32;100753.78;;;9.75;100.00
3142;BME280;1581;51.568;6.998;2023-04-07T06:14:00;100754.44;;;9.91;100.00
3142;BME280;1581;51.568;6.998;2023-04-07T06:16:27;100758.31;;;10.03;100.00
3142;BME280;1581;51.568;6.998;2023-04-07T06:18:57;100758.75;;;9.92;100.00
3142;BME280;1581;51.568;6.998;2023-04-07T06:21:25;100753.56;;;9.99;100.00
3142;BME280;1581;51.568;6.998;2023-04-07T06:23:53;100748.50;;;10.18;100.00
3142;BME280;1581;51.568;6.998;2023-04-07T06:26:21;100757.94;;;10.21;100.00
3142;BME280;1581;51.568;6.998;2023-04-07T06:28:48;100755.19;;;10.28;100.00
3142;BME280;1581;51.568;6.998;2023-04-07T06:31:16;100764.47;;;10.18;100.00
3142;BME280;1581;51.568;6.998;2023-04-07T06:33:45;100758.75;;;10.21;100.00
3142;BME280;1581;51.568;6.998;2023-04-07T06:36:14;100766.03;;;10.27;100.00
3142;BME280;1581;51.568;6.998;2023-04-07T06:38:42;100760.75;;;10.33;100.00
3142;BME280;1581;51.568;6.998;2023-04-07T06:41:10;100757.56;;;10.24;100.00
3142;BME280;1581;51.568;6.998;2023-04-07T06:43:42;100771.72;;;10.10;100.00
3142;BME280;1581;51.568;6.998;2023-04-07T06:46:10;100771.31;;;9.84;100.00
3142;BME280;1581;51.568;6.998;2023-04-07T06:48:38;100781.16;;;9.83;100.00
3142;BME280;1581;51.568;6.998;2023-04-07T06:51:07;100781.78;;;9.85;100.00
3142;BME280;1581;51.568;6.998;2023-04-07T06:53:37;100781.72;;;10.08;100.00
3142;BME280;1581;51.568;6.998;2023-04-07T06:56:06;100781.06;;;10.20;100.00
3142;BME280;1581;51.568;6.998;2023-04-07T06:58:34;100795.94;;;10.29;100.00
3142;BME280;1581;51.568;6.998;2023-04-07T07:01:05;100787.69;;;9.95;100.00
3142;BME280;1581;51.568;6.998;2023-04-07T07:03:32;100791.09;;;10.04;100.00
3142;BME280;1581;51.568;6.998;2023-04-07T07:06:01;100789.72;;;10.08;100.00
3142;BME280;1581;51.568;6.998;2023-04-07T07:08:29;100791.72;;;10.20;100.00
3142;BME280;1581;51.568;6.998;2023-04-07T07:10:58;100785.69;;;10.26;100.00
3142;BME280;1581;51.568;6.998;2023-04-07T07:13:26;100789.72;;;10.22;100.00
3142;BME280;1581;51.568;6.998;2023-04-07T07:15:54;100796.41;;;10.32;100.00
3142;BME280;1581;51.568;6.998;2023-04-07T07:18:22;100791.44;;;10.29;100.00
3142;BME280;1581;51.568;6.998;2023-04-07T07:20:50;100792.22;;;10.59;100.00
3142;BME280;1581;51.568;6.998;2023-04-07T07:23:17;100803.28;;;10.41;100.00
3142;BME280;1581;51.568;6.998;2023-04-07T07:25:45;100802.38;;;10.70;100.00
3142;BME280;1581;51.568;6.998;2023-04-07T07:28:14;100797.75;;;10.57;100.00
3142;BME280;1581;51.568;6.998;2023-04-07T07:30:42;100804.25;;;10.69;100.00
3142;BME280;1581;51.568;6.998;2023-04-07T07:33:10;100808.31;;;10.86;100.00
3142;BME280;1581;51.568;6.998;2023-04-07T07:35:37;100807.75;;;10.91;100.00
3142;BME280;1581;51.568;6.998;2023-04-07T07:38:05;100808.28;;;11.01;100.00
3142;BME280;1581;51.568;6.998;2023-04-07T07:40:33;100811.56;;;11.03;100.00
3142;BME280;1581;51.568;6.998;2023-04-07T07:43:01;100810.13;;;11.00;100.00
3142;BME280;1581;51.568;6.998;2023-04-07T07:45:30;100808.63;;;11.12;100.00
3142;BME280;1581;51.568;6.998;2023-04-07T07:47:58;100814.41;;;10.80;100.00
3142;BME280;1581;51.568;6.998;2023-04-07T07:50:25;100820.28;;;11.11;100.00
3142;BME280;1581;51.568;6.998;2023-04-07T07:52:53;100819.53;;;11.17;100.00
3142;BME280;1581;51.568;6.998;2023-04-07T07:55:21;100821.09;;;11.32;100.00
3142;BME280;1581;51.568;6.998;2023-04-07T07:57:49;100826.41;;;10.91;100.00
3142;BME280;1581;51.568;6.998;2023-04-07T08:00:17;100827.66;;;11.09;100.00
3142;BME280;1581;51.568;6.998;2023-04-07T08:02:46;100833.13;;;11.22;100.00
3142;BME280;1581;51.568;6.998;2023-04-07T08:05:13;100826.56;;;11.24;100.00
3142;BME280;1581;51.568;6.998;2023-04-07T08:07:41;100839.41;;;11.35;100.00
3142;BME280;1581;51.568;6.998;2023-04-07T08:10:09;100847.66;;;11.40;100.00
3142;BME280;1581;51.568;6.998;2023-04-07T08:12:37;100846.31;;;11.51;100.00
3142;BME280;1581;51.568;6.998;2023-04-07T08:15:06;100849.09;;;11.57;100.00
3142;BME280;1581;51.568;6.998;2023-04-07T08:17:35;100849.59;;;11.67;100.00
3142;BME280;1581;51.568;6.998;2023-04-07T08:20:07;100858.91;;;11.57;100.00
3142;BME280;1581;51.568;6.998;2023-04-07T08:22:35;100856.81;;;11.31;100.00
3142;BME280;1581;51.568;6.998;2023-04-07T08:25:04;100859.09;;;11.34;100.00
3142;BME280;1581;51.568;6.998;2023-04-07T08:27:32;100854.81;;;11.54;100.00
3142;BME280;1581;51.568;6.998;2023-04-07T08:30:01;100857.00;;;11.51;100.00
3142;BME280;1581;51.568;6.998;2023-04-07T08:32:37;100852.41;;;11.45;100.00
3142;BME280;1581;51.568;6.998;2023-04-07T08:35:07;100864.38;;;11.49;100.00
3142;BME280;1581;51.568;6.998;2023-04-07T08:37:36;100863.53;;;11.48;100.00
3142;BME280;1581;51.568;6.998;2023-04-07T08:40:05;100867.28;;;11.12;100.00
3142;BME280;1581;51.568;6.998;2023-04-07T08:42:34;100868.41;;;11.24;100.00
3142;BME280;1581;51.568;6.998;2023-04-07T08:45:08;100867.34;;;11.39;100.00
3142;BME280;1581;51.568;6.998;2023-04-07T08:47:36;100872.94;;;11.44;100.00
3142;BME280;1581;51.568;6.998;2023-04-07T08:50:08;100870.63;;;11.56;100.00
3142;BME280;1581;51.568;6.998;2023-04-07T08:52:43;100875.41;;;11.46;100.00
3142;BME280;1581;51.568;6.998;2023-04-07T08:55:11;100873.69;;;11.38;100.00
3142;BME280;1581;51.568;6.998;2023-04-07T08:57:41;100879.38;;;11.50;100.00
3142;BME280;1581;51.568;6.998;2023-04-07T09:00:12;100879.75;;;11.47;100.00
3142;BME280;1581;51.568;6.998;2023-04-07T09:02:42;100877.25;;;11.24;100.00
3142;BME280;1581;51.568;6.998;2023-04-07T09:05:12;100886.34;;;11.30;100.00
3142;BME280;1581;51.568;6.998;2023-04-07T09:07:40;100881.56;;;11.05;100.00
3142;BME280;1581;51.568;6.998;2023-04-07T09:10:09;100889.69;;;11.38;100.00
3142;BME280;1581;51.568;6.998;2023-04-07T09:12:38;100889.94;;;11.22;100.00
3142;BME280;1581;51.568;6.998;2023-04-07T09:15:07;100893.06;;;11.26;100.00
3142;BME280;1581;51.568;6.998;2023-04-07T09:17:37;100894.47;;;11.22;100.00
3142;BME280;1581;51.568;6.998;2023-04-07T09:20:06;100905.09;;;11.01;100.00
3142;BME280;1581;51.568;6.998;2023-04-07T09:22:39;100903.16;;;11.30;100.00
3142;BME280;1581;51.568;6.998;2023-04-07T09:25:15;100898.53;;;11.39;100.00
3142;BME280;1581;51.568;6.998;2023-04-07T09:27:59;100902.63;;;11.56;100.00
3142;BME280;1581;51.568;6.998;2023-04-07T09:30:28;100897.31;;;11.56;100.00
3142;BME280;1581;51.568;6.998;2023-04-07T09:32:56;100901.63;;;11.78;100.00
3142;BME280;1581;51.568;6.998;2023-04-07T09:35:24;100903.69;;;12.03;100.00
3142;BME280;1581;51.568;6.998;2023-04-07T09:38:05;100905.47;;;11.96;100.00
3142;BME280;1581;51.568;6.998;2023-04-07T09:40:35;100901.94;;;12.16;100.00
3142;BME280;1581;51.568;6.998;2023-04-07T09:43:04;100903.19;;;12.20;100.00
3142;BME280;1581;51.568;6.998;2023-04-07T09:45:32;100902.03;;;12.29;100.00
3142;BME280;1581;51.568;6.998;2023-04-07T09:48:05;100906.63;;;12.42;100.00
3142;BME280;1581;51.568;6.998;2023-04-07T09:50:35;100902.88;;;12.09;100.00
3142;BME280;1581;51.568;6.998;2023-04-07T09:53:04;100904.00;;;12.48;100.00
3142;BME280;1581;51.568;6.998;2023-04-07T09:55:36;100909.34;;;12.48;100.00
3142;BME280;1581;51.568;6.998;2023-04-07T09:58:06;100912.88;;;12.89;100.00
3142;BME280;1581;51.568;6.998;2023-04-07T10:00:36;100919.66;;;13.51;100.00
3142;BME280;1581;51.568;6.998;2023-04-07T10:03:05;100923.16;;;13.45;100.00
3142;BME280;1581;51.568;6.998;2023-04-07T10:05:34;100910.84;;;13.57;100.00
3142;BME280;1581;51.568;6.998;2023-04-07T10:08:04;100919.22;;;13.41;100.00
3142;BME280;1581;51.568;6.998;2023-04-07T10:10:33;100915.94;;;13.46;100.00
3142;BME280;1581;51.568;6.998;2023-04-07T10:13:04;100918.25;;;12.95;100.00
3142;BME280;1581;51.568;6.998;2023-04-07T10:15:33;100917.56;;;12.53;100.00
3142;BME280;1581;51.568;6.998;2023-04-07T10:18:05;100927.56;;;12.11;100.00
3142;BME280;1581;51.568;6.998;2023-04-07T10:20:34;100918.19;;;11.94;100.00
3142;BME280;1581;51.568;6.998;2023-04-07T10:23:15;100924.31;;;12.15;100.00
3142;BME280;1581;51.568;6.998;2023-04-07T10:25:45;100923.41;;;12.02;100.00
3142;BME280;1581;51.568;6.998;2023-04-07T10:28:16;100930.19;;;12.04;100.00
3142;BME280;1581;51.568;6.998;2023-04-07T10:30:47;100935.59;;;12.11;100.00
3142;BME280;1581;51.568;6.998;2023-04-07T10:33:15;100931.78;;;11.99;100.00
3142;BME280;1581;51.568;6.998;2023-04-07T10:36:11;100937.25;;;12.12;100.00
3142;BME280;1581;51.568;6.998;2023-04-07T10:38:40;100942.03;;;11.96;100.00
3142;BME280;1581;51.568;6.998;2023-04-07T10:41:35;100938.47;;;12.09;100.00
3142;BME280;1581;51.568;6.998;2023-04-07T10:44:05;100938.75;;;12.21;100.00
3142;BME280;1581;51.568;6.998;2023-04-07T10:47:04;100943.22;;;12.41;100.00
3142;BME280;1581;51.568;6.998;2023-04-07T10:49:32;100935.31;;;12.27;100.00
3142;BME280;1581;51.568;6.998;2023-04-07T10:52:23;100949.38;;;12.14;100.00
3142;BME280;1581;51.568;6.998;2023-04-07T10:55:29;100950.88;;;11.75;100.00
3142;BME280;1581;51.568;6.998;2023-04-07T10:58:18;100955.72;;;12.07;100.00
3142;BME280;1581;51.568;6.998;2023-04-07T11:01:18;100957.19;;;11.89;100.00
3142;BME280;1581;51.568;6.998;2023-04-07T11:03:58;100955.88;;;12.05;100.00
3142;BME280;1581;51.568;6.998;2023-04-07T11:06:26;100955.50;;;12.08;100.00
3142;BME280;1581;51.568;6.998;2023-04-07T11:08:54;100964.00;;;12.18;100.00
3142;BME280;1581;51.568;6.998;2023-04-07T11:11:42;100949.16;;;11.68;100.00
3142;BME280;1581;51.568;6.998;2023-04-07T11:14:24;100957.59;;;12.13;100.00
3142;BME280;1581;51.568;6.998;2023-04-07T11:16:53;100963.53;;;12.08;100.00
3142;BME280;1581;51.568;6.998;2023-04-07T11:19:21;100961.19;;;12.26;100.00
3142;BME280;1581;51.568;6.998;2023-04-07T11:21:49;100955.91;;;12.33;100.00
3142;BME280;1581;51.568;6.998;2023-04-07T11:24:33;100964.56;;;12.35;100.00
3142;BME280;1581;51.568;6.998;2023-04-07T11:27:04;100968.63;;;11.83;100.00
3142;BME280;1581;51.568;6.998;2023-04-07T11:29:34;100969.16;;;11.99;100.00
3142;BME280;1581;51.568;6.998;2023-04-07T11:32:02;100966.50;;;11.99;100.00
3142;BME280;1581;51.568;6.998;2023-04-07T11:34:31;100970.59;;;11.95;100.00
3142;BME280;1581;51.568;6.998;2023-04-07T11:37:19;100975.47;;;12.12;100.00
3142;BME280;1581;51.568;6.998;2023-04-07T11:39:51;100975.09;;;11.74;100.00
3142;BME280;1581;51.568;6.998;2023-04-07T11:42:32;100978.69;;;12.08;100.00
3142;BME280;1581;51.568;6.998;2023-04-07T11:45:01;100979.81;;;11.93;100.00
3142;BME280;1581;51.568;6.998;2023-04-07T11:47:35;100984.22;;;12.27;100.00
3142;BME280;1581;51.568;6.998;2023-04-07T11:50:04;100982.78;;;12.52;100.00
3142;BME280;1581;51.568;6.998;2023-04-07T11:52:40;100991.63;;;12.53;100.00
3142;BME280;1581;51.568;6.998;2023-04-07T11:55:17;100986.25;;;12.25;100.00
3142;BME280;1581;51.568;6.998;2023-04-07T11:57:48;100991.50;;;12.67;100.00
3142;BME280;1581;51.568;6.998;2023-04-07T12:00:18;101000.63;;;12.79;100.00
3142;BME280;1581;51.568;6.998;2023-04-07T12:02:47;100996.69;;;13.02;100.00
3142;BME280;1581;51.568;6.998;2023-04-07T12:05:15;100989.72;;;13.08;100.00
3142;BME280;1581;51.568;6.998;2023-04-07T12:07:52;100998.59;;;13.15;100.00
3142;BME280;1581;51.568;6.998;2023-04-07T12:10:22;101004.94;;;13.01;100.00
3142;BME280;1581;51.568;6.998;2023-04-07T12:12:53;101004.75;;;12.82;100.00
3142;BME280;1581;51.568;6.998;2023-04-07T12:15:21;101007.91;;;12.30;100.00
3142;BME280;1581;51.568;6.998;2023-04-07T12:17:52;101012.75;;;12.00;100.00
3142;BME280;1581;51.568;6.998;2023-04-07T12:20:29;101010.06;;;12.20;100.00
3142;BME280;1581;51.568;6.998;2023-04-07T12:22:59;101012.47;;;12.15;100.00
3142;BME280;1581;51.568;6.998;2023-04-07T12:25:27;101018.25;;;12.19;100.00
3142;BME280;1581;51.568;6.998;2023-04-07T12:27:56;101019.03;;;12.13;100.00
3142;BME280;1581;51.568;6.998;2023-04-07T12:30:24;101023.94;;;12.09;100.00
3142;BME280;1581;51.568;6.998;2023-04-07T12:32:51;101023.09;;;12.09;100.00
3142;BME280;1581;51.568;6.998;2023-04-07T12:35:19;101031.00;;;12.17;100.00
3142;BME280;1581;51.568;6.998;2023-04-07T12:37:48;101032.47;;;12.19;100.00
3142;BME280;1581;51.568;6.998;2023-04-07T12:40:17;101022.84;;;12.25;100.00
3142;BME280;1581;51.568;6.998;2023-04-07T12:42:44;101028.88;;;12.33;100.00
3142;BME280;1581;51.568;6.998;2023-04-07T12:45:15;101029.06;;;12.32;100.00
3142;BME280;1581;51.568;6.998;2023-04-07T12:47:44;101032.19;;;12.35;100.00
3142;BME280;1581;51.568;6.998;2023-04-07T12:50:12;101032.38;;;12.34;100.00
3142;BME280;1581;51.568;6.998;2023-04-07T12:52:40;101038.16;;;12.37;100.00
3142;BME280;1581;51.568;6.998;2023-04-07T12:55:09;101039.75;;;12.32;100.00
3142;BME280;1581;51.568;6.998;2023-04-07T12:57:37;101050.38;;;12.25;100.00
3142;BME280;1581;51.568;6.998;2023-04-07T13:00:07;101044.97;;;12.40;100.00
3142;BME280;1581;51.568;6.998;2023-04-07T13:02:36;101043.19;;;12.47;100.00
3142;BME280;1581;51.568;6.998;2023-04-07T13:05:04;101045.41;;;12.43;100.00
3142;BME280;1581;51.568;6.998;2023-04-07T13:07:33;101047.19;;;12.36;100.00
3142;BME280;1581;51.568;6.998;2023-04-07T13:10:01;101037.38;;;12.43;100.00
3142;BME280;1581;51.568;6.998;2023-04-07T13:12:31;101045.06;;;12.53;100.00
3142;BME280;1581;51.568;6.998;2023-04-07T13:14:59;101047.97;;;12.58;100.00
3142;BME280;1581;51.568;6.998;2023-04-07T13:17:27;101051.88;;;12.55;100.00
3142;BME280;1581;51.568;6.998;2023-04-07T13:19:56;101050.16;;;12.48;100.00